createdAt,value
2023-12-12T00:00:41.322Z,4.30
2023-12-12T00:03:08.438Z,4.20
2023-12-12T00:05:35.659Z,4.20
2023-12-12T00:08:04.323Z,4.30
2023-12-12T00:10:31.490Z,4.30
2023-12-12T00:12:58.653Z,4.30
2023-12-12T00:15:25.879Z,4.30
2023-12-12T00:17:53.029Z,4.30
2023-12-12T00:20:20.142Z,4.30
2023-12-12T00:22:47.223Z,4.20
2023-12-12T00:25:15.817Z,4.20
2023-12-12T00:27:42.915Z,4.20
2023-12-12T00:30:10.324Z,4.10
2023-12-12T00:32:37.408Z,4.10
2023-12-12T00:35:04.954Z,4.00
2023-12-12T00:37:32.522Z,4.10
2023-12-12T00:39:59.899Z,4.20
2023-12-12T00:42:28.326Z,4.10
2023-12-12T00:44:55.482Z,4.20
2023-12-12T00:47:22.581Z,4.20
2023-12-12T00:49:49.750Z,4.30
2023-12-12T00:52:16.863Z,4.20
2023-12-12T00:54:44.006Z,4.20
2023-12-12T00:57:11.077Z,4.20
2023-12-12T00:59:39.508Z,4.10
2023-12-12T01:02:06.578Z,4.20
2023-12-12T01:04:34.003Z,4.20
2023-12-12T01:07:01.241Z,4.20
2023-12-12T01:09:28.739Z,4.20
2023-12-12T01:11:55.812Z,4.20
2023-12-12T01:14:22.897Z,4.20
2023-12-12T01:16:51.389Z,4.20
2023-12-12T01:19:18.577Z,4.10
2023-12-12T01:21:45.717Z,4.10
2023-12-12T01:24:12.821Z,3.90
2023-12-12T01:26:39.877Z,3.80
2023-12-12T01:29:07.020Z,3.80
2023-12-12T01:31:34.191Z,3.90
2023-12-12T01:34:02.799Z,4.00
2023-12-12T01:36:29.936Z,4.00
2023-12-12T01:38:56.972Z,4.10
2023-12-12T01:41:24.254Z,4.20
2023-12-12T01:43:51.339Z,4.20
2023-12-12T01:46:20.813Z,4.20
2023-12-12T01:48:49.118Z,4.20
2023-12-12T01:51:17.894Z,4.20
2023-12-12T01:53:47.997Z,4.20
2023-12-12T01:56:16.511Z,4.20
2023-12-12T01:58:46.423Z,4.30
2023-12-12T02:01:14.420Z,4.30
2023-12-12T02:03:42.159Z,4.30
2023-12-12T02:06:12.965Z,4.30
2023-12-12T02:08:42.470Z,4.30
2023-12-12T02:11:09.740Z,4.30
2023-12-12T02:13:37.010Z,4.30
2023-12-12T02:16:04.788Z,4.10
2023-12-12T02:18:32.172Z,4.00
2023-12-12T02:20:59.381Z,4.10
2023-12-12T02:23:28.164Z,4.10
2023-12-12T02:25:55.750Z,4.20
2023-12-12T02:28:23.116Z,4.20
2023-12-12T02:30:50.648Z,4.20
2023-12-12T02:33:18.161Z,4.20
2023-12-12T02:35:45.298Z,4.30
2023-12-12T02:38:12.359Z,4.20
2023-12-12T02:40:41.297Z,4.20
2023-12-12T02:43:08.468Z,4.20
2023-12-12T02:45:35.779Z,4.10
2023-12-12T02:48:03.429Z,4.10
2023-12-12T02:50:30.534Z,4.00
2023-12-12T02:52:57.654Z,4.10
2023-12-12T02:55:24.767Z,4.10
2023-12-12T02:57:53.296Z,4.10
2023-12-12T03:00:20.717Z,4.10
2023-12-12T03:02:47.796Z,4.00
2023-12-12T03:05:15.024Z,4.00
2023-12-12T03:07:42.212Z,3.90
2023-12-12T03:10:09.608Z,4.00
2023-12-12T03:12:36.782Z,4.00
2023-12-12T03:15:06.257Z,4.10
2023-12-12T03:17:33.772Z,4.10
2023-12-12T03:20:01.315Z,4.10
2023-12-12T03:22:28.946Z,4.00
2023-12-12T03:24:56.128Z,4.00
2023-12-12T03:27:23.240Z,4.10
2023-12-12T03:29:50.292Z,4.10
2023-12-12T03:32:18.774Z,4.10
2023-12-12T03:34:45.891Z,4.00
2023-12-12T03:37:14.525Z,4.10
2023-12-12T03:39:41.644Z,4.10
2023-12-12T03:42:08.714Z,4.10
2023-12-12T03:44:35.803Z,4.20
2023-12-12T03:47:02.842Z,4.10
2023-12-12T03:49:31.926Z,4.20
2023-12-12T03:51:59.231Z,4.10
2023-12-12T03:54:26.340Z,4.20
2023-12-12T03:56:53.413Z,4.20
2023-12-12T03:59:20.525Z,3.90
2023-12-12T04:01:51.163Z,4.00
2023-12-12T04:04:18.744Z,4.10
2023-12-12T04:06:48.037Z,3.90
2023-12-12T04:09:15.539Z,4.00
2023-12-12T04:11:42.642Z,4.00
2023-12-12T04:14:09.880Z,4.10
2023-12-12T04:16:37.022Z,3.90
2023-12-12T04:19:04.262Z,4.00
2023-12-12T04:21:31.772Z,4.00
2023-12-12T04:24:00.493Z,4.10
2023-12-12T04:26:30.083Z,4.10
2023-12-12T04:28:57.158Z,4.20
2023-12-12T04:31:24.336Z,4.20
2023-12-12T04:33:51.541Z,4.20
2023-12-12T04:36:18.724Z,4.10
2023-12-12T04:38:45.807Z,4.10
2023-12-12T04:41:14.308Z,4.00
2023-12-12T04:43:42.457Z,4.10
2023-12-12T04:46:09.578Z,4.10
2023-12-12T04:48:36.744Z,4.10
2023-12-12T04:51:04.033Z,4.10
2023-12-12T04:53:31.310Z,4.20
2023-12-12T04:55:58.387Z,4.30
2023-12-12T04:58:26.989Z,4.30
2023-12-12T05:00:54.151Z,4.30
2023-12-12T05:03:21.288Z,4.30
2023-12-12T05:05:49.459Z,4.20
2023-12-12T05:08:16.615Z,4.20
2023-12-12T05:10:43.790Z,4.10
2023-12-12T05:13:11.017Z,4.20
2023-12-12T05:15:39.496Z,4.30
2023-12-12T05:18:06.626Z,4.30
2023-12-12T05:20:33.873Z,4.30
2023-12-12T05:23:01.111Z,4.40
2023-12-12T05:25:28.287Z,4.30
2023-12-12T05:27:55.434Z,4.30
2023-12-12T05:30:22.596Z,4.30
2023-12-12T05:32:51.623Z,4.30
2023-12-12T05:35:18.826Z,4.30
2023-12-12T05:37:46.008Z,4.20
2023-12-12T05:40:13.307Z,4.20
2023-12-12T05:42:40.388Z,4.20
2023-12-12T05:45:08.777Z,4.20
2023-12-12T05:47:36.399Z,4.30
2023-12-12T05:50:06.239Z,4.40
2023-12-12T05:52:33.623Z,4.30
2023-12-12T05:55:01.212Z,4.40
2023-12-12T05:57:28.602Z,4.40
2023-12-12T05:59:55.838Z,4.40
2023-12-12T06:02:22.985Z,4.40
2023-12-12T06:04:50.374Z,4.40
2023-12-12T06:07:19.073Z,4.40
2023-12-12T06:09:46.218Z,4.30
2023-12-12T06:12:13.386Z,4.40
2023-12-12T06:14:40.456Z,7.60
2023-12-12T06:17:07.527Z,8.50
2023-12-12T06:19:34.639Z,8.50
2023-12-12T06:22:01.779Z,8.00
2023-12-12T06:24:30.406Z,6.70
2023-12-12T06:26:57.523Z,6.00
2023-12-12T06:29:24.664Z,5.80
2023-12-12T06:31:51.785Z,5.50
2023-12-12T06:34:19.105Z,5.20
2023-12-12T06:36:46.337Z,5.10
2023-12-12T06:39:13.437Z,5.10
2023-12-12T06:41:41.980Z,5.00
2023-12-12T06:44:09.091Z,5.00
2023-12-12T06:46:36.254Z,5.00
2023-12-12T06:49:05.263Z,5.00
2023-12-12T06:51:32.882Z,4.90
2023-12-12T06:54:00.286Z,4.90
2023-12-12T06:56:27.659Z,4.90
2023-12-12T06:58:56.139Z,4.80
2023-12-12T07:01:23.386Z,4.80
2023-12-12T07:03:50.593Z,4.70
2023-12-12T07:06:17.885Z,4.60
2023-12-12T07:08:47.135Z,4.60
2023-12-12T07:11:16.256Z,4.60
2023-12-12T07:13:43.345Z,4.60
2023-12-12T07:16:11.926Z,4.60
2023-12-12T07:18:39.671Z,4.80
2023-12-12T07:21:07.617Z,4.80
2023-12-12T07:23:34.959Z,4.90
2023-12-12T07:26:02.055Z,4.80
2023-12-12T07:28:29.336Z,4.60
2023-12-12T07:30:56.835Z,4.80
2023-12-12T07:33:25.576Z,4.80
2023-12-12T07:35:52.911Z,4.90
2023-12-12T07:38:20.005Z,4.90
2023-12-12T07:40:47.208Z,4.80
2023-12-12T07:43:14.454Z,4.60
2023-12-12T07:45:41.651Z,4.80
2023-12-12T07:48:08.844Z,4.80
2023-12-12T07:50:37.389Z,4.70
2023-12-12T07:53:04.486Z,4.80
2023-12-12T07:55:31.714Z,4.80
2023-12-12T07:57:58.841Z,4.90
2023-12-12T08:00:25.933Z,5.00
2023-12-12T08:02:53.104Z,4.90
2023-12-12T08:05:20.177Z,5.00
2023-12-12T08:07:48.690Z,5.00
2023-12-12T08:10:15.932Z,4.80
2023-12-12T08:12:43.700Z,4.70
2023-12-12T08:15:11.097Z,4.90
2023-12-12T08:17:38.358Z,5.00
2023-12-12T08:20:07.812Z,4.90
2023-12-12T08:22:35.377Z,4.90
2023-12-12T08:25:04.223Z,5.00
2023-12-12T08:27:31.839Z,5.10
2023-12-12T08:29:59.086Z,5.20
2023-12-12T08:32:26.231Z,5.00
2023-12-12T08:34:53.427Z,5.10
2023-12-12T08:37:20.573Z,5.00
2023-12-12T08:39:47.839Z,4.90
2023-12-12T08:42:16.356Z,4.90
2023-12-12T08:44:43.594Z,5.00
2023-12-12T08:47:10.721Z,5.10
2023-12-12T08:49:37.987Z,5.10
2023-12-12T08:52:06.172Z,5.20
2023-12-12T08:54:33.562Z,5.30
2023-12-12T08:57:00.738Z,5.40
2023-12-12T08:59:29.258Z,5.40
2023-12-12T09:01:56.748Z,5.50
2023-12-12T09:04:23.952Z,5.50
2023-12-12T09:06:51.165Z,5.50
2023-12-12T09:09:18.304Z,5.50
2023-12-12T09:11:46.653Z,5.50
2023-12-12T09:14:13.805Z,5.60
2023-12-12T09:16:42.323Z,5.70
2023-12-12T09:19:09.579Z,5.80
2023-12-12T09:21:36.923Z,5.70
2023-12-12T09:24:05.143Z,5.80
2023-12-12T09:26:33.013Z,5.70
2023-12-12T09:29:00.230Z,5.70
2023-12-12T09:31:28.348Z,5.70
2023-12-12T09:33:57.228Z,5.70
2023-12-12T09:36:24.476Z,5.80
2023-12-12T09:38:51.679Z,5.80
2023-12-12T09:41:22.593Z,5.80
2023-12-12T09:43:51.042Z,5.90
2023-12-12T09:46:19.136Z,6.00
2023-12-12T09:48:48.008Z,5.90
2023-12-12T09:51:16.807Z,5.90
2023-12-12T09:53:45.072Z,6.00
2023-12-12T09:56:14.195Z,5.90
2023-12-12T09:58:41.385Z,6.00
2023-12-12T10:01:09.722Z,5.90
2023-12-12T10:03:38.570Z,5.90
2023-12-12T10:06:09.326Z,6.00
2023-12-12T10:08:38.590Z,5.80
2023-12-12T10:11:07.414Z,6.00
2023-12-12T10:13:47.908Z,6.00
2023-12-12T10:16:15.235Z,6.00
2023-12-12T10:18:43.850Z,6.10
2023-12-12T10:21:15.602Z,6.00
2023-12-12T10:23:45.901Z,6.10
2023-12-12T10:26:13.738Z,6.10
2023-12-12T10:28:41.143Z,6.00
2023-12-12T10:31:08.555Z,6.00
2023-12-12T10:33:36.086Z,6.10
2023-12-12T10:36:03.577Z,6.10
2023-12-12T10:38:30.716Z,6.30
2023-12-12T10:41:12.761Z,6.40
2023-12-12T10:43:40.688Z,6.40
2023-12-12T10:46:10.832Z,6.30
2023-12-12T10:48:43.020Z,6.40
2023-12-12T10:51:11.299Z,6.40
2023-12-12T10:53:38.758Z,6.40
2023-12-12T10:56:08.068Z,6.50
2023-12-12T10:58:39.110Z,6.60
2023-12-12T11:01:07.815Z,6.60
2023-12-12T11:03:36.056Z,6.60
2023-12-12T11:06:03.969Z,6.60
2023-12-12T11:08:31.456Z,6.70
2023-12-12T11:11:00.419Z,6.90
2023-12-12T11:13:30.798Z,6.90
2023-12-12T11:16:01.845Z,7.10
2023-12-12T11:18:29.790Z,7.10
2023-12-12T11:20:57.000Z,7.20
2023-12-12T11:23:52.011Z,7.20
2023-12-12T11:26:19.970Z,7.30
2023-12-12T11:28:48.607Z,7.30
2023-12-12T11:31:25.320Z,7.30
2023-12-12T11:34:10.150Z,7.30
2023-12-12T11:36:49.389Z,7.40
2023-12-12T11:39:23.400Z,7.50
2023-12-12T11:41:51.786Z,7.30
2023-12-12T11:44:19.697Z,7.40
2023-12-12T11:46:48.346Z,7.20
2023-12-12T11:49:19.709Z,7.20
2023-12-12T11:51:46.997Z,7.20
2023-12-12T11:54:23.130Z,7.30
2023-12-12T11:56:56.163Z,7.40
2023-12-12T11:59:24.149Z,7.30
2023-12-12T12:01:53.086Z,7.30
2023-12-12T12:04:20.549Z,7.20
2023-12-12T12:06:47.875Z,7.10
2023-12-12T12:09:15.306Z,7.20
2023-12-12T12:11:48.627Z,7.20
2023-12-12T12:14:16.309Z,7.20
2023-12-12T12:16:43.778Z,7.30
2023-12-12T12:19:32.299Z,7.30
2023-12-12T12:22:04.218Z,7.40
2023-12-12T12:24:31.565Z,7.60
2023-12-12T12:26:58.831Z,7.80
2023-12-12T12:29:26.331Z,7.80
2023-12-12T12:31:53.876Z,7.80
2023-12-12T12:34:22.213Z,7.80
2023-12-12T12:36:53.380Z,8.00
2023-12-12T12:39:22.035Z,8.00
2023-12-12T12:41:54.562Z,8.00
2023-12-12T12:44:21.705Z,8.10
2023-12-12T12:46:49.806Z,8.10
2023-12-12T12:49:17.225Z,8.40
2023-12-12T12:51:44.442Z,9.00
2023-12-12T12:54:12.998Z,9.00
2023-12-12T12:56:41.568Z,9.30
2023-12-12T12:59:08.681Z,9.10
2023-12-12T13:01:36.059Z,8.90
2023-12-12T13:04:03.306Z,9.10
2023-12-12T13:06:30.603Z,9.10
2023-12-12T13:08:57.741Z,9.00
2023-12-12T13:11:26.271Z,8.80
2023-12-12T13:13:53.473Z,8.70
2023-12-12T13:16:20.677Z,8.60
2023-12-12T13:18:47.912Z,8.80
2023-12-12T13:21:15.126Z,9.00
2023-12-12T13:23:42.195Z,9.20
2023-12-12T13:26:09.352Z,9.00
2023-12-12T13:28:37.819Z,9.00
2023-12-12T13:31:05.589Z,9.10
2023-12-12T13:33:32.895Z,9.10
2023-12-12T13:36:00.272Z,9.10
2023-12-12T13:38:27.402Z,9.00
2023-12-12T13:40:54.546Z,9.10
2023-12-12T13:43:21.709Z,9.10
2023-12-12T13:45:52.126Z,8.90
2023-12-12T13:48:19.941Z,8.70
2023-12-12T13:50:47.188Z,8.80
2023-12-12T13:53:14.348Z,8.90
2023-12-12T13:55:41.605Z,9.00
2023-12-12T13:58:08.718Z,9.00
2023-12-12T14:00:36.048Z,8.90
2023-12-12T14:03:04.669Z,8.90
2023-12-12T14:05:31.924Z,9.00
2023-12-12T14:07:59.212Z,8.90
2023-12-12T14:10:26.676Z,8.90
2023-12-12T14:12:53.843Z,8.80
2023-12-12T14:15:21.049Z,8.70
2023-12-12T14:17:48.277Z,8.70
2023-12-12T14:20:17.024Z,8.70
2023-12-12T14:22:44.920Z,8.50
2023-12-12T14:25:13.081Z,8.40
2023-12-12T14:27:40.170Z,8.40
2023-12-12T14:30:08.603Z,8.40
2023-12-12T14:32:36.118Z,8.40
2023-12-12T14:35:03.501Z,8.30
2023-12-12T14:37:32.045Z,8.30
2023-12-12T14:39:59.230Z,8.20
2023-12-12T14:42:26.380Z,8.20
2023-12-12T14:44:53.503Z,8.20
2023-12-12T14:47:23.370Z,8.20
2023-12-12T14:49:52.570Z,8.30
2023-12-12T14:52:20.197Z,8.20
2023-12-12T14:54:48.658Z,8.30
2023-12-12T14:57:20.621Z,8.30
2023-12-12T14:59:49.436Z,8.30
2023-12-12T15:02:16.831Z,8.10
2023-12-12T15:04:44.640Z,8.10
2023-12-12T15:07:11.927Z,8.00
2023-12-12T15:09:39.959Z,8.00
2023-12-12T15:12:08.885Z,7.90
2023-12-12T15:14:36.024Z,7.90
2023-12-12T15:17:04.550Z,7.90
2023-12-12T15:19:34.820Z,7.90
2023-12-12T15:22:01.975Z,7.90
2023-12-12T15:24:29.255Z,7.90
2023-12-12T15:26:56.472Z,7.90
2023-12-12T15:29:25.025Z,7.70
2023-12-12T15:31:52.539Z,7.80
2023-12-12T15:34:22.505Z,7.80
2023-12-12T15:36:49.864Z,7.80
2023-12-12T15:39:17.015Z,7.80
2023-12-12T15:41:47.231Z,7.80
2023-12-12T15:44:17.220Z,7.80
2023-12-12T15:46:45.821Z,7.80
2023-12-12T15:49:13.144Z,7.70
2023-12-12T15:51:40.377Z,7.70
2023-12-12T15:54:07.517Z,7.70
2023-12-12T15:56:34.623Z,7.60
2023-12-12T15:59:01.810Z,7.70
2023-12-12T16:01:29.117Z,7.70
2023-12-12T16:03:58.009Z,7.60
2023-12-12T16:06:25.126Z,7.50
2023-12-12T16:08:52.498Z,7.40
2023-12-12T16:11:22.842Z,7.30
2023-12-12T16:13:49.909Z,7.30
2023-12-12T16:16:17.145Z,7.20
2023-12-12T16:18:44.325Z,7.30
2023-12-12T16:21:12.837Z,7.20
2023-12-12T16:23:40.003Z,7.30
2023-12-12T16:26:07.426Z,7.30
2023-12-12T16:28:34.553Z,7.40
2023-12-12T16:31:04.103Z,7.20
2023-12-12T16:33:32.425Z,7.30
2023-12-12T16:35:59.946Z,7.30
2023-12-12T16:38:28.523Z,7.40
2023-12-12T16:40:55.951Z,7.30
2023-12-12T16:43:23.170Z,7.30
2023-12-12T16:45:54.785Z,7.40
2023-12-12T16:48:21.953Z,7.40
2023-12-12T16:50:58.270Z,7.30
2023-12-12T16:53:36.444Z,7.30
2023-12-12T16:56:08.557Z,7.20
2023-12-12T16:58:38.060Z,7.20
2023-12-12T17:01:06.765Z,7.30
2023-12-12T17:03:41.418Z,7.30
2023-12-12T17:06:23.591Z,7.30
2023-12-12T17:09:00.367Z,7.30
2023-12-12T17:11:27.528Z,7.30
2023-12-12T17:14:18.298Z,7.30
2023-12-12T17:16:47.383Z,7.30
2023-12-12T17:19:14.620Z,7.30
2023-12-12T17:21:46.228Z,7.20
2023-12-12T17:24:36.426Z,7.20
2023-12-12T17:27:06.827Z,7.20
2023-12-12T17:29:44.562Z,7.20
2023-12-12T17:32:11.845Z,7.20
2023-12-12T17:34:45.987Z,7.10
2023-12-12T17:37:13.560Z,7.10
2023-12-12T17:39:43.071Z,7.10
2023-12-12T17:42:13.213Z,7.10
2023-12-12T17:45:10.829Z,7.00
2023-12-12T17:47:38.514Z,7.00
2023-12-12T17:50:23.390Z,7.10
2023-12-12T17:52:50.673Z,7.10
2023-12-12T17:58:02.144Z,7.00
2023-12-12T18:00:33.186Z,7.00
2023-12-12T18:03:03.343Z,7.10
2023-12-12T18:05:55.433Z,7.10
2023-12-12T18:11:56.471Z,7.10
2023-12-12T18:14:23.589Z,7.10
2023-12-12T18:16:50.787Z,7.10
2023-12-12T18:19:55.346Z,7.10
2023-12-12T18:22:41.083Z,7.10
2023-12-12T18:25:09.313Z,7.10
2023-12-12T18:27:40.521Z,7.20
2023-12-12T18:30:14.744Z,7.10
2023-12-12T18:32:42.351Z,7.10
2023-12-12T18:35:09.946Z,7.20
2023-12-12T18:37:37.455Z,7.10
2023-12-12T18:40:06.264Z,7.00
2023-12-12T18:42:33.479Z,6.90
2023-12-12T18:45:01.926Z,7.00
2023-12-12T18:47:29.151Z,6.90
2023-12-12T18:49:56.333Z,7.00
2023-12-12T18:52:23.538Z,7.00
2023-12-12T18:54:50.636Z,7.00
2023-12-12T18:57:17.736Z,7.00
2023-12-12T18:59:44.839Z,7.00
2023-12-12T19:02:13.284Z,7.00
2023-12-12T19:04:40.470Z,7.00
2023-12-12T19:07:07.733Z,7.00
2023-12-12T19:09:34.974Z,7.00
2023-12-12T19:12:02.090Z,7.00
2023-12-12T19:14:29.152Z,7.00
2023-12-12T19:16:56.313Z,6.80
2023-12-12T19:19:25.483Z,6.60
2023-12-12T19:21:52.715Z,6.50
2023-12-12T19:24:19.772Z,6.50
2023-12-12T19:26:46.901Z,6.50
2023-12-12T19:29:14.061Z,6.50
2023-12-12T19:31:41.305Z,6.50
2023-12-12T19:34:08.519Z,6.40
2023-12-12T19:36:40.937Z,6.60
2023-12-12T19:39:08.415Z,6.50
2023-12-12T19:41:36.828Z,6.50
2023-12-12T19:44:04.140Z,6.40
2023-12-12T19:46:31.226Z,6.50
2023-12-12T19:48:58.326Z,6.50
2023-12-12T19:51:25.419Z,6.40
2023-12-12T19:53:53.916Z,6.50
2023-12-12T19:56:20.991Z,6.60
2023-12-12T19:58:48.166Z,6.60
2023-12-12T20:01:15.361Z,6.70
2023-12-12T20:03:42.652Z,6.80
2023-12-12T20:06:10.721Z,6.70
2023-12-12T20:08:37.925Z,6.80
2023-12-12T20:11:06.860Z,6.90
2023-12-12T20:13:34.026Z,6.90
2023-12-12T20:16:01.281Z,6.90
2023-12-12T20:18:28.487Z,6.90
2023-12-12T20:20:55.604Z,6.90
2023-12-12T20:23:22.703Z,6.90
2023-12-12T20:25:49.963Z,6.90
2023-12-12T20:28:18.602Z,6.90
2023-12-12T20:30:45.857Z,6.80
2023-12-12T20:33:13.142Z,6.80
2023-12-12T20:35:40.267Z,6.80
2023-12-12T20:38:07.439Z,6.90
2023-12-12T20:40:35.404Z,6.80
2023-12-12T20:43:02.578Z,6.90
2023-12-12T20:45:31.113Z,6.90
2023-12-12T20:47:58.410Z,6.90
2023-12-12T20:50:25.531Z,6.90
2023-12-12T20:52:52.680Z,6.80
2023-12-12T20:55:19.854Z,6.70
2023-12-12T20:57:46.951Z,6.80
2023-12-12T21:00:15.137Z,6.80
2023-12-12T21:02:43.634Z,6.80
2023-12-12T21:05:10.847Z,6.80
2023-12-12T21:07:38.122Z,6.80
2023-12-12T21:10:05.751Z,6.80
2023-12-12T21:12:32.963Z,6.80
2023-12-12T21:15:00.219Z,6.80
2023-12-12T21:17:27.296Z,6.80
2023-12-12T21:19:55.776Z,6.80
2023-12-12T21:22:23.014Z,6.70
2023-12-12T21:24:50.135Z,6.80
2023-12-12T21:27:17.354Z,6.70
2023-12-12T21:29:44.498Z,6.70
2023-12-12T21:32:11.564Z,6.70
2023-12-12T21:34:38.771Z,6.70
2023-12-12T21:37:07.331Z,6.70
2023-12-12T21:39:34.559Z,6.70
2023-12-12T21:42:01.677Z,6.70
2023-12-12T21:44:28.817Z,6.70
2023-12-12T21:46:56.006Z,6.80
2023-12-12T21:49:23.441Z,6.80
2023-12-12T21:51:50.936Z,6.80
2023-12-12T21:54:19.362Z,6.80
2023-12-12T21:56:46.547Z,6.80
2023-12-12T21:59:13.741Z,6.80
2023-12-12T22:01:41.028Z,6.80
2023-12-12T22:04:08.398Z,6.80
2023-12-12T22:06:38.112Z,6.80
2023-12-12T22:09:05.338Z,6.80
2023-12-12T22:11:34.354Z,6.80
2023-12-12T22:14:01.471Z,6.70
2023-12-12T22:16:30.100Z,6.70
2023-12-12T22:18:59.620Z,6.60
2023-12-12T22:21:28.532Z,6.70
2023-12-12T22:23:56.049Z,6.70
2023-12-12T22:26:23.278Z,6.70
2023-12-12T22:28:51.708Z,6.70
2023-12-12T22:31:18.822Z,6.70
2023-12-12T22:33:45.964Z,6.70
2023-12-12T22:36:17.726Z,6.70
2023-12-12T22:38:45.968Z,6.80
2023-12-12T22:41:13.694Z,6.80
2023-12-12T22:43:41.349Z,6.70
2023-12-12T22:46:10.338Z,6.70
2023-12-12T22:48:37.687Z,6.70
2023-12-12T22:51:05.667Z,6.70
2023-12-12T22:53:32.822Z,6.70
2023-12-12T22:56:00.561Z,6.60
2023-12-12T22:58:27.679Z,6.50
2023-12-12T23:00:54.914Z,6.60
2023-12-12T23:03:23.459Z,6.50
2023-12-12T23:05:51.084Z,6.50
2023-12-12T23:08:18.331Z,6.50
2023-12-12T23:10:45.458Z,6.50
2023-12-12T23:13:12.587Z,6.60
2023-12-12T23:15:40.336Z,6.40
2023-12-12T23:18:07.788Z,6.40
2023-12-12T23:20:36.281Z,6.50
2023-12-12T23:23:03.432Z,6.50
2023-12-12T23:25:30.512Z,6.60
2023-12-12T23:27:57.647Z,6.60
2023-12-12T23:30:24.826Z,6.60
2023-12-12T23:32:52.045Z,6.60
2023-12-12T23:35:19.330Z,6.60
2023-12-12T23:37:47.862Z,6.70
2023-12-12T23:40:15.091Z,6.70
2023-12-12T23:42:45.145Z,6.70
2023-12-12T23:45:13.989Z,6.80
2023-12-12T23:47:42.742Z,6.70
2023-12-12T23:50:10.513Z,6.80
2023-12-12T23:52:37.736Z,6.80
2023-12-12T23:55:07.702Z,6.80
2023-12-12T23:57:35.225Z,6.90
